Time;durP1;ratioP1;P1;durP2;ratioP2;P2;SDS_P1;SDS_P2;PMS_P1;PMS_P2;Temp;Humidity;BMP_temperature;BMP_pressure;BME280_temperature;BME280_humidity;BME280_pressure;Samples;Min_cycle;Max_cycle;Signal;HPM_P1;HPM_P2
2021/08/14 00:01:22;;;;;;;10.77;6.35;;;;;;;;;;5021290;28;20018;-85
2021/08/14 00:03:48;;;;;;;9.73;6.20;;;;;;;;;;5036579;28;20309;-85
2021/08/14 00:06:16;;;;;;;9.32;6.90;;;;;;;;;;5021119;28;20026;-85
2021/08/14 00:08:43;;;;;;;8.50;6.50;;;;;;;;;;5036131;28;20041;-85
2021/08/14 00:11:09;;;;;;;10.98;6.10;;;;;;;;;;5036489;28;20399;-84
2021/08/14 00:13:35;;;;;;;6.97;6.15;;;;;;;;;;5021063;28;20033;-85
2021/08/14 00:16:01;;;;;;;12.25;6.60;;;;;;;;;;5021187;28;20109;-85
2021/08/14 00:18:27;;;;;;;11.30;6.20;;;;;;;;;;5020810;28;20037;-84
2021/08/14 00:20:53;;;;;;;12.75;6.70;;;;;;;;;;5020827;28;20029;-84
2021/08/14 00:23:19;;;;;;;11.73;6.25;;;;;;;;;;5036116;28;20065;-84
2021/08/14 00:25:45;;;;;;;9.98;6.53;;;;;;;;;;5020531;28;20037;-84
2021/08/14 00:28:12;;;;;;;11.55;6.85;;;;;;;;;;5036145;28;20328;-84
2021/08/14 00:30:38;;;;;;;10.02;6.65;;;;;;;;;;5020573;28;20022;-85
2021/08/14 00:33:04;;;;;;;10.95;6.97;;;;;;;;;;5020606;28;20423;-84
2021/08/14 00:35:30;;;;;;;9.40;6.70;;;;;;;;;;5036059;28;20071;-85
2021/08/14 00:37:56;;;;;;;11.20;6.90;;;;;;;;;;5035673;28;20029;-84
2021/08/14 00:40:22;;;;;;;7.95;6.40;;;;;;;;;;5020596;28;20049;-85
2021/08/14 00:42:48;;;;;;;9.75;6.38;;;;;;;;;;5020240;28;20316;-84
2021/08/14 00:45:14;;;;;;;14.27;6.22;;;;;;;;;;5020358;28;20030;-83
2021/08/14 00:47:43;;;;;;;7.60;6.05;;;;;;;;;;5020249;28;20117;-84
2021/08/14 00:50:11;;;;;;;10.77;6.80;;;;;;;;;;5020302;28;20028;-84
2021/08/14 00:52:37;;;;;;;10.30;6.50;;;;;;;;;;5020170;28;20032;-84
2021/08/14 00:55:03;;;;;;;10.55;6.65;;;;;;;;;;5020225;28;20026;-85
2021/08/14 00:57:30;;;;;;;12.10;6.68;;;;;;;;;;5019849;28;20057;-84
2021/08/14 00:59:56;;;;;;;9.55;6.55;;;;;;;;;;5035622;28;20313;-85
2021/08/14 01:02:22;;;;;;;12.27;6.78;;;;;;;;;;5035727;28;20041;-84
2021/08/14 01:04:49;;;;;;;12.82;6.72;;;;;;;;;;5035514;28;20053;-85
2021/08/14 01:07:16;;;;;;;10.15;6.35;;;;;;;;;;5019824;28;20427;-85
2021/08/14 01:09:42;;;;;;;9.75;6.05;;;;;;;;;;5019932;28;20112;-85
2021/08/14 01:12:09;;;;;;;12.50;6.85;;;;;;;;;;5020200;28;20301;-85
2021/08/14 01:14:35;;;;;;;13.60;7.35;;;;;;;;;;5035297;28;20030;-85
2021/08/14 01:17:01;;;;;;;10.45;7.45;;;;;;;;;;5035370;28;20112;-85
2021/08/14 01:19:28;;;;;;;9.43;7.18;;;;;;;;;;5019778;28;20018;-85
2021/08/14 01:21:54;;;;;;;10.50;7.72;;;;;;;;;;5019774;28;20028;-85
2021/08/14 01:24:21;;;;;;;11.02;7.18;;;;;;;;;;5019635;28;20324;-85
2021/08/14 01:26:47;;;;;;;12.52;7.22;;;;;;;;;;5019721;28;20026;-85
2021/08/14 01:29:14;;;;;;;13.52;8.18;;;;;;;;;;5019610;28;20121;-85
2021/08/14 01:31:40;;;;;;;12.75;8.05;;;;;;;;;;5019850;28;20030;-85
2021/08/14 01:34:07;;;;;;;9.75;7.72;;;;;;;;;;5019479;28;20030;-85
2021/08/14 01:36:33;;;;;;;10.93;7.43;;;;;;;;;;5019460;28;20029;-85
2021/08/14 01:39:00;;;;;;;12.00;8.15;;;;;;;;;;5019435;28;20052;-85
2021/08/14 01:41:27;;;;;;;11.18;8.18;;;;;;;;;;5019348;28;20018;-85
2021/08/14 01:43:53;;;;;;;12.85;7.93;;;;;;;;;;5019509;28;20025;-85
2021/08/14 01:46:19;;;;;;;10.68;7.80;;;;;;;;;;5019312;28;20046;-85
2021/08/14 01:48:45;;;;;;;11.57;7.95;;;;;;;;;;5019432;28;20030;-85
2021/08/14 01:51:11;;;;;;;11.57;7.95;;;;;;;;;;5019332;28;20072;-86
2021/08/14 01:53:37;;;;;;;17.38;8.57;;;;;;;;;;5034496;28;20030;-86
2021/08/14 01:56:03;;;;;;;12.85;8.13;;;;;;;;;;5034659;28;20025;-86
2021/08/14 01:58:29;;;;;;;15.43;8.65;;;;;;;;;;5018433;28;20093;-86
2021/08/14 02:00:55;;;;;;;16.98;8.23;;;;;;;;;;5018782;28;20073;-85
2021/08/14 02:03:21;;;;;;;10.93;7.65;;;;;;;;;;5019175;28;20028;-84
2021/08/14 02:05:47;;;;;;;16.90;8.65;;;;;;;;;;5034318;28;20064;-85
2021/08/14 02:08:13;;;;;;;13.90;7.97;;;;;;;;;;5018935;28;20027;-84
2021/08/14 02:10:39;;;;;;;11.43;8.77;;;;;;;;;;5018434;28;20034;-84
2021/08/14 02:13:09;;;;;;;13.90;8.00;;;;;;;;;;5033924;28;20129;-84
2021/08/14 02:15:35;;;;;;;13.18;8.35;;;;;;;;;;5034195;28;20038;-84
2021/08/14 02:18:01;;;;;;;13.23;7.47;;;;;;;;;;5019013;28;20108;-84
2021/08/14 02:20:27;;;;;;;9.93;8.10;;;;;;;;;;5018315;28;20033;-84
2021/08/14 02:22:53;;;;;;;10.88;8.02;;;;;;;;;;5033994;28;20022;-84
2021/08/14 02:25:19;;;;;;;12.60;8.63;;;;;;;;;;5018564;28;20057;-85
2021/08/14 02:27:45;;;;;;;15.10;8.60;;;;;;;;;;5018429;28;20336;-86
2021/08/14 02:30:12;;;;;;;12.05;9.07;;;;;;;;;;5034054;28;20034;-85
2021/08/14 02:32:38;;;;;;;11.30;8.95;;;;;;;;;;5018491;28;20359;-85
2021/08/14 02:35:04;;;;;;;12.25;8.52;;;;;;;;;;5034001;28;20117;-85
2021/08/14 02:37:31;;;;;;;17.90;8.98;;;;;;;;;;5018227;28;20033;-85
2021/08/14 02:39:57;;;;;;;11.68;8.30;;;;;;;;;;5018146;28;20375;-85
2021/08/14 02:42:23;;;;;;;11.77;8.52;;;;;;;;;;5033801;28;20045;-85
2021/08/14 02:44:49;;;;;;;19.23;8.95;;;;;;;;;;5018454;28;20037;-84
2021/08/14 02:47:15;;;;;;;15.32;8.98;;;;;;;;;;5033768;28;20030;-85
2021/08/14 02:49:41;;;;;;;11.10;8.73;;;;;;;;;;5033737;28;20030;-85
2021/08/14 02:52:07;;;;;;;13.40;8.77;;;;;;;;;;5018309;28;20022;-85
2021/08/14 02:54:33;;;;;;;13.63;8.60;;;;;;;;;;5017998;28;20148;-85
2021/08/14 02:56:59;;;;;;;15.65;9.02;;;;;;;;;;5033352;28;20076;-85
2021/08/14 02:59:43;;;;;;;13.55;8.98;;;;;;;;;;5018101;28;20018;-85
2021/08/14 03:02:09;;;;;;;15.73;9.15;;;;;;;;;;5033487;28;20033;-85
2021/08/14 03:04:35;;;;;;;11.70;8.93;;;;;;;;;;5018236;28;20022;-85
2021/08/14 03:07:01;;;;;;;12.70;8.68;;;;;;;;;;5017864;28;20032;-85
2021/08/14 03:09:27;;;;;;;18.00;9.18;;;;;;;;;;5033259;28;20040;-85
2021/08/14 03:11:53;;;;;;;15.82;8.85;;;;;;;;;;5032421;28;20421;-85
2021/08/14 03:14:20;;;;;;;21.38;9.70;;;;;;;;;;5033271;28;20443;-85
2021/08/14 03:16:46;;;;;;;20.00;9.43;;;;;;;;;;5017824;28;20026;-84
2021/08/14 03:19:12;;;;;;;15.63;9.48;;;;;;;;;;5017688;28;20030;-85
2021/08/14 03:21:38;;;;;;;18.42;9.68;;;;;;;;;;5017533;28;20056;-85
2021/08/14 03:24:04;;;;;;;16.63;9.70;;;;;;;;;;5033321;28;20026;-84
2021/08/14 03:26:31;;;;;;;20.73;9.95;;;;;;;;;;5017616;28;20360;-85
2021/08/14 03:28:57;;;;;;;11.65;9.35;;;;;;;;;;5017677;28;20025;-85
2021/08/14 03:31:23;;;;;;;23.48;10.80;;;;;;;;;;5032864;28;20364;-84
2021/08/14 03:33:49;;;;;;;20.38;10.32;;;;;;;;;;5017374;28;20405;-84
2021/08/14 03:36:15;;;;;;;17.65;9.82;;;;;;;;;;5017285;28;20030;-84
2021/08/14 03:38:42;;;;;;;20.15;9.85;;;;;;;;;;5017536;28;20026;-85
2021/08/14 03:41:08;;;;;;;19.77;10.52;;;;;;;;;;5017408;28;20049;-85
2021/08/14 03:43:35;;;;;;;15.25;9.75;;;;;;;;;;5032938;28;20416;-85
2021/08/14 03:46:01;;;;;;;23.33;11.02;;;;;;;;;;5033065;28;20048;-85
2021/08/14 03:48:27;;;;;;;16.67;9.82;;;;;;;;;;5017405;28;20088;-85
2021/08/14 03:50:53;;;;;;;16.10;9.77;;;;;;;;;;5017639;28;20100;-85
2021/08/14 03:53:19;;;;;;;20.17;10.90;;;;;;;;;;5032806;28;20030;-85
2021/08/14 03:55:45;;;;;;;17.15;9.73;;;;;;;;;;5017455;28;20049;-85
2021/08/14 03:58:13;;;;;;;17.63;9.90;;;;;;;;;;5032785;28;20073;-85
2021/08/14 04:00:39;;;;;;;16.17;9.82;;;;;;;;;;5032907;28;20045;-85
2021/08/14 04:03:05;;;;;;;24.23;10.15;;;;;;;;;;5017729;28;20065;-85
2021/08/14 04:05:31;;;;;;;16.63;10.18;;;;;;;;;;5017704;28;20022;-86
2021/08/14 04:07:57;;;;;;;16.98;9.80;;;;;;;;;;5017730;28;20113;-85
2021/08/14 04:10:23;;;;;;;23.38;10.70;;;;;;;;;;5033029;28;20061;-86
2021/08/14 04:12:50;;;;;;;16.70;10.35;;;;;;;;;;5017157;28;20036;-86
2021/08/14 04:18:20;;;;;;;20.15;11.07;;;;;;;;;;5017395;28;20041;-86
2021/08/14 04:20:46;;;;;;;24.85;10.00;;;;;;;;;;5032852;28;20026;-85
2021/08/14 04:23:12;;;;;;;17.73;10.38;;;;;;;;;;5019585;28;20030;-86
2021/08/14 04:25:38;;;;;;;14.52;9.85;;;;;;;;;;5036494;28;20036;-86
2021/08/14 04:28:04;;;;;;;17.17;9.57;;;;;;;;;;5036346;28;20435;-84
2021/08/14 04:30:30;;;;;;;13.77;10.27;;;;;;;;;;5020707;28;20404;-85
2021/08/14 04:32:56;;;;;;;15.13;9.30;;;;;;;;;;5036272;28;20030;-84
2021/08/14 04:35:22;;;;;;;14.52;9.05;;;;;;;;;;5020748;28;20026;-85
2021/08/14 04:37:49;;;;;;;15.05;9.55;;;;;;;;;;5020491;28;20037;-85
2021/08/14 04:40:15;;;;;;;15.30;10.13;;;;;;;;;;5020529;28;20054;-85
2021/08/14 04:42:42;;;;;;;19.60;9.70;;;;;;;;;;5036218;28;20018;-85
2021/08/14 04:45:08;;;;;;;13.77;9.43;;;;;;;;;;5020640;28;20033;-85
2021/08/14 04:47:34;;;;;;;14.63;8.68;;;;;;;;;;5020392;28;20034;-85
2021/08/14 04:50:01;;;;;;;13.40;8.80;;;;;;;;;;5020433;28;20462;-86
2021/08/14 04:52:27;;;;;;;18.27;9.85;;;;;;;;;;5020361;28;20091;-85
2021/08/14 04:54:53;;;;;;;19.40;9.20;;;;;;;;;;5020554;28;20033;-85
2021/08/14 04:57:20;;;;;;;15.93;9.70;;;;;;;;;;5020382;28;20033;-84
2021/08/14 04:59:46;;;;;;;13.52;9.13;;;;;;;;;;5035393;28;20117;-84
2021/08/14 05:02:12;;;;;;;12.90;9.32;;;;;;;;;;5020323;28;20026;-84
2021/08/14 05:04:38;;;;;;;14.07;8.80;;;;;;;;;;5035629;28;20026;-84
2021/08/14 05:07:04;;;;;;;16.55;9.90;;;;;;;;;;5020356;28;20113;-84
2021/08/14 05:09:31;;;;;;;18.05;10.35;;;;;;;;;;5020060;28;20040;-84
2021/08/14 05:11:57;;;;;;;15.73;9.30;;;;;;;;;;5019936;28;20125;-85
2021/08/14 05:14:23;;;;;;;17.58;9.60;;;;;;;;;;5035379;28;20026;-85
2021/08/14 05:16:49;;;;;;;17.25;9.80;;;;;;;;;;5020122;28;20030;-84
2021/08/14 05:19:15;;;;;;;13.82;10.43;;;;;;;;;;5019614;28;20096;-84
2021/08/14 05:21:41;;;;;;;15.07;10.15;;;;;;;;;;5035265;28;20064;-84
2021/08/14 05:24:07;;;;;;;21.10;10.77;;;;;;;;;;5035068;28;20435;-84
2021/08/14 05:26:33;;;;;;;20.20;11.02;;;;;;;;;;5019881;28;20156;-85
2021/08/14 05:28:59;;;;;;;15.38;9.77;;;;;;;;;;5019755;28;20037;-85
2021/08/14 05:31:25;;;;;;;18.15;9.35;;;;;;;;;;5034856;28;20024;-84
2021/08/14 05:33:51;;;;;;;16.17;8.90;;;;;;;;;;5033572;28;20030;-83
2021/08/14 05:36:17;;;;;;;19.23;9.68;;;;;;;;;;5019529;28;20117;-83
2021/08/14 05:38:43;;;;;;;17.90;9.90;;;;;;;;;;5019030;28;20359;-84
2021/08/14 05:41:09;;;;;;;16.50;9.35;;;;;;;;;;5034558;28;20348;-84
2021/08/14 05:43:35;;;;;;;19.48;10.23;;;;;;;;;;5034842;28;20321;-85
2021/08/14 05:46:01;;;;;;;27.05;15.48;;;;;;;;;;5034956;28;20375;-86
2021/08/14 05:48:28;;;;;;;15.48;9.05;;;;;;;;;;5019318;28;20032;-84
2021/08/14 05:50:54;;;;;;;15.48;10.23;;;;;;;;;;5034654;28;20405;-84
2021/08/14 05:53:20;;;;;;;13.13;8.60;;;;;;;;;;5034324;28;20061;-87
2021/08/14 05:55:46;;;;;;;18.45;10.48;;;;;;;;;;5033861;28;20038;-75
2021/08/14 05:58:12;;;;;;;12.25;7.95;;;;;;;;;;5018421;28;20026;-75
2021/08/14 06:00:38;;;;;;;18.05;11.55;;;;;;;;;;5018594;28;20360;-75
2021/08/14 06:03:05;;;;;;;19.48;9.63;;;;;;;;;;5018511;28;20033;-75
2021/08/14 06:05:31;;;;;;;23.67;11.85;;;;;;;;;;5018522;28;20030;-75
2021/08/14 06:07:57;;;;;;;20.30;13.45;;;;;;;;;;5018491;28;20313;-75
2021/08/14 06:10:23;;;;;;;16.55;9.98;;;;;;;;;;5018636;28;20172;-75
2021/08/14 06:12:49;;;;;;;15.68;10.55;;;;;;;;;;5018330;28;20026;-75
2021/08/14 06:15:15;;;;;;;23.10;16.77;;;;;;;;;;5018184;28;20057;-75
2021/08/14 06:17:41;;;;;;;29.35;24.60;;;;;;;;;;5018485;28;20109;-75
2021/08/14 06:20:11;;;;;;;35.78;28.02;;;;;;;;;;5018341;28;20026;-75
2021/08/14 06:22:37;;;;;;;23.08;16.40;;;;;;;;;;5018288;28;20091;-75
2021/08/14 06:25:04;;;;;;;21.95;14.95;;;;;;;;;;5018247;28;20320;-75
2021/08/14 06:27:30;;;;;;;20.00;15.73;;;;;;;;;;5017996;28;20022;-75
2021/08/14 06:29:56;;;;;;;20.13;12.93;;;;;;;;;;5018039;28;20037;-75
2021/08/14 06:32:22;;;;;;;9.70;8.35;;;;;;;;;;5018020;28;20033;-75
2021/08/14 06:34:48;;;;;;;13.95;7.82;;;;;;;;;;5018065;28;20037;-75
2021/08/14 06:37:14;;;;;;;12.65;7.57;;;;;;;;;;5017894;28;20022;-75
2021/08/14 06:39:41;;;;;;;15.45;9.40;;;;;;;;;;5033092;28;20053;-75
2021/08/14 06:42:08;;;;;;;15.80;7.30;;;;;;;;;;5017825;28;20030;-75
2021/08/14 06:44:34;;;;;;;13.38;9.98;;;;;;;;;;5033200;28;20017;-75
2021/08/14 06:47:01;;;;;;;13.75;6.55;;;;;;;;;;5017967;28;20022;-75
2021/08/14 06:49:27;;;;;;;19.27;6.22;;;;;;;;;;5017882;28;20026;-75
2021/08/14 06:51:53;;;;;;;13.15;6.63;;;;;;;;;;5017642;28;20068;-75
2021/08/14 06:54:19;;;;;;;10.63;6.63;;;;;;;;;;5017706;28;20030;-75
2021/08/14 06:56:45;;;;;;;15.80;7.50;;;;;;;;;;5017460;28;20034;-76
2021/08/14 06:59:11;;;;;;;10.80;6.55;;;;;;;;;;5017512;28;20022;-75
2021/08/14 07:01:37;;;;;;;13.13;7.30;;;;;;;;;;5017622;28;20020;-75
2021/08/14 07:04:03;;;;;;;11.55;6.82;;;;;;;;;;5017545;28;20452;-75
2021/08/14 07:06:29;;;;;;;15.63;6.55;;;;;;;;;;5017521;28;20026;-75
2021/08/14 07:08:55;;;;;;;12.80;7.10;;;;;;;;;;5017396;28;20049;-75
2021/08/14 07:11:22;;;;;;;13.70;6.30;;;;;;;;;;5017375;28;20408;-75
2021/08/14 07:13:49;;;;;;;9.95;7.13;;;;;;;;;;5017259;28;20069;-75
2021/08/14 07:16:15;;;;;;;11.23;6.55;;;;;;;;;;5017268;28;20029;-75
2021/08/14 07:18:41;;;;;;;12.98;6.60;;;;;;;;;;5017294;28;20032;-75
2021/08/14 07:21:07;;;;;;;11.23;7.13;;;;;;;;;;5017269;28;20022;-76
2021/08/14 07:23:33;;;;;;;10.07;6.55;;;;;;;;;;5017261;28;20409;-75
2021/08/14 07:25:59;;;;;;;11.57;7.70;;;;;;;;;;5016908;28;20113;-75
2021/08/14 07:28:25;;;;;;;66.65;48.35;;;;;;;;;;5017100;28;20408;-75
2021/08/14 07:30:52;;;;;;;17.98;11.77;;;;;;;;;;5017386;28;20034;-75
2021/08/14 07:33:18;;;;;;;19.27;9.98;;;;;;;;;;5017270;28;20033;-75
2021/08/14 07:35:44;;;;;;;14.63;9.18;;;;;;;;;;5017244;28;20022;-75
2021/08/14 07:38:10;;;;;;;10.82;6.70;;;;;;;;;;5032406;28;20034;-75
2021/08/14 07:40:36;;;;;;;9.18;5.10;;;;;;;;;;5016879;28;20050;-75
2021/08/14 07:43:03;;;;;;;106.60;94.85;;;;;;;;;;5017022;28;20026;-75
2021/08/14 07:45:29;;;;;;;29.95;22.27;;;;;;;;;;5017298;28;20026;-75
2021/08/14 07:47:55;;;;;;;16.60;9.45;;;;;;;;;;5016960;28;20117;-75
2021/08/14 07:50:26;;;;;;;15.82;11.35;;;;;;;;;;5017136;28;20032;-75
2021/08/14 07:52:52;;;;;;;12.48;5.88;;;;;;;;;;5017091;28;20022;-75
2021/08/14 07:55:19;;;;;;;36.22;21.60;;;;;;;;;;5016970;28;20037;-75
2021/08/14 07:57:46;;;;;;;23.30;15.90;;;;;;;;;;5018612;28;20022;-75
2021/08/14 08:00:16;;;;;;;57.00;38.05;;;;;;;;;;5035986;28;20030;-75
2021/08/14 08:02:42;;;;;;;34.45;22.50;;;;;;;;;;5021158;28;20032;-75
2021/08/14 08:05:09;;;;;;;16.05;9.98;;;;;;;;;;5020842;28;20053;-75
2021/08/14 08:07:37;;;;;;;19.17;12.10;;;;;;;;;;5020911;28;20033;-75
2021/08/14 08:10:06;;;;;;;14.45;9.50;;;;;;;;;;5021010;28;20030;-75
2021/08/14 08:12:32;;;;;;;23.02;13.38;;;;;;;;;;5020403;28;20145;-75
2021/08/14 08:14:58;;;;;;;17.88;10.27;;;;;;;;;;5020732;28;20022;-75
2021/08/14 08:17:24;;;;;;;9.93;6.55;;;;;;;;;;5020660;28;20156;-76
2021/08/14 08:19:50;;;;;;;14.52;7.93;;;;;;;;;;5020600;28;20026;-76
2021/08/14 08:22:16;;;;;;;11.57;7.93;;;;;;;;;;5020681;28;20043;-76
2021/08/14 08:24:42;;;;;;;11.10;5.95;;;;;;;;;;5020378;28;20352;-75
2021/08/14 08:27:08;;;;;;;13.68;5.97;;;;;;;;;;5035980;28;20298;-75
2021/08/14 08:29:35;;;;;;;8.77;5.20;;;;;;;;;;5020501;28;20022;-75
2021/08/14 08:32:01;;;;;;;10.57;5.00;;;;;;;;;;5020357;28;20022;-75
2021/08/14 08:34:27;;;;;;;9.63;5.55;;;;;;;;;;5020303;28;20026;-75
2021/08/14 08:36:53;;;;;;;7.95;5.25;;;;;;;;;;5020166;28;20030;-75
2021/08/14 08:39:20;;;;;;;6.53;4.53;;;;;;;;;;5019960;28;20062;-75
2021/08/14 08:41:46;;;;;;;8.55;4.95;;;;;;;;;;5020122;28;20030;-75
2021/08/14 08:44:12;;;;;;;7.97;4.93;;;;;;;;;;5020013;28;20393;-75
2021/08/14 08:46:39;;;;;;;7.55;4.97;;;;;;;;;;5020114;28;20033;-75
2021/08/14 08:49:05;;;;;;;5.15;4.10;;;;;;;;;;5020096;28;20056;-75
2021/08/14 08:51:32;;;;;;;9.25;4.40;;;;;;;;;;5020093;28;20080;-75
2021/08/14 08:53:59;;;;;;;7.80;4.57;;;;;;;;;;5035268;28;20036;-75
2021/08/14 08:56:25;;;;;;;5.40;4.38;;;;;;;;;;5019560;28;20030;-75
2021/08/14 08:58:51;;;;;;;7.25;5.20;;;;;;;;;;5019597;28;20021;-75
2021/08/14 09:01:17;;;;;;;7.45;4.40;;;;;;;;;;5019916;28;20029;-76
2021/08/14 09:03:44;;;;;;;7.18;4.32;;;;;;;;;;5020001;28;20041;-75
2021/08/14 09:06:10;;;;;;;10.18;4.78;;;;;;;;;;5019641;28;20383;-75
2021/08/14 09:08:36;;;;;;;5.75;4.60;;;;;;;;;;5018510;28;20029;-75
2021/08/14 09:11:15;;;;;;;6.07;4.22;;;;;;;;;;5019507;28;20120;-75
2021/08/14 09:14:01;;;;;;;7.00;4.47;;;;;;;;;;5019427;28;20034;-75
2021/08/14 09:16:27;;;;;;;9.45;4.55;;;;;;;;;;5019471;28;20105;-75
2021/08/14 09:18:54;;;;;;;7.32;4.55;;;;;;;;;;5019334;28;20026;-75
2021/08/14 09:21:32;;;;;;;6.25;4.50;;;;;;;;;;5019274;28;20054;-75
2021/08/14 09:24:03;;;;;;;8.25;4.53;;;;;;;;;;5019324;28;20025;-75
2021/08/14 09:26:29;;;;;;;8.13;4.72;;;;;;;;;;5019573;28;20116;-75
2021/08/14 09:29:03;;;;;;;9.23;4.15;;;;;;;;;;5019249;28;20076;-75
2021/08/14 09:31:45;;;;;;;11.70;4.40;;;;;;;;;;5019203;28;20333;-76
2021/08/14 09:34:15;;;;;;;8.07;5.25;;;;;;;;;;5019140;28;20045;-76
2021/08/14 09:36:42;;;;;;;7.55;4.25;;;;;;;;;;5019292;28;20077;-76
2021/08/14 09:39:08;;;;;;;6.32;4.00;;;;;;;;;;5018899;28;20113;-75
2021/08/14 09:41:34;;;;;;;8.68;4.45;;;;;;;;;;5018917;28;20439;-75
2021/08/14 09:44:00;;;;;;;7.97;4.28;;;;;;;;;;5018970;28;20034;-75
2021/08/14 09:46:42;;;;;;;4.95;4.05;;;;;;;;;;5019058;28;20037;-76
2021/08/14 09:49:10;;;;;;;6.72;3.88;;;;;;;;;;5018919;28;20030;-76
2021/08/14 09:51:37;;;;;;;9.77;4.22;;;;;;;;;;5019005;28;20052;-75
2021/08/14 09:54:04;;;;;;;9.48;4.50;;;;;;;;;;5018784;28;20025;-76
2021/08/14 09:56:37;;;;;;;7.68;4.63;;;;;;;;;;5018613;28;20026;-76
2021/08/14 09:59:07;;;;;;;7.03;4.30;;;;;;;;;;5018665;28;20029;-76
2021/08/14 10:01:36;;;;;;;10.18;4.68;;;;;;;;;;5018857;28;20026;-75
2021/08/14 10:04:03;;;;;;;7.55;4.13;;;;;;;;;;5018598;28;20121;-76
2021/08/14 10:06:29;;;;;;;5.53;3.78;;;;;;;;;;5018700;28;20030;-75
2021/08/14 10:08:56;;;;;;;7.07;4.43;;;;;;;;;;5018450;28;20022;-75
2021/08/14 10:11:22;;;;;;;7.13;4.20;;;;;;;;;;5018479;28;20022;-76
2021/08/14 10:13:49;;;;;;;7.55;4.40;;;;;;;;;;5033735;28;20045;-75
2021/08/14 10:16:15;;;;;;;4.78;4.28;;;;;;;;;;5018350;28;20022;-75
2021/08/14 10:18:45;;;;;;;11.90;4.38;;;;;;;;;;5017991;28;20539;-75
2021/08/14 10:21:11;;;;;;;11.55;5.20;;;;;;;;;;5018129;28;20297;-76
2021/08/14 10:23:38;;;;;;;8.48;4.30;;;;;;;;;;5018361;28;20026;-75
2021/08/14 10:26:06;;;;;;;5.97;4.25;;;;;;;;;;5017809;28;20030;-75
2021/08/14 10:28:44;;;;;;;5.70;4.47;;;;;;;;;;5018108;28;20076;-75
2021/08/14 10:31:30;;;;;;;5.78;4.05;;;;;;;;;;5018330;28;20029;-75
2021/08/14 10:33:57;;;;;;;9.18;4.45;;;;;;;;;;5018159;28;20412;-75
2021/08/14 10:36:27;;;;;;;11.85;5.00;;;;;;;;;;5018146;28;20030;-75
2021/08/14 10:38:53;;;;;;;11.27;5.35;;;;;;;;;;5033125;28;20041;-75
2021/08/14 10:41:19;;;;;;;20.38;7.47;;;;;;;;;;5017720;28;20117;-74
2021/08/14 10:43:52;;;;;;;29.55;9.95;;;;;;;;;;5017818;28;20304;-75
2021/08/14 10:46:38;;;;;;;13.32;5.45;;;;;;;;;;5033143;28;20475;-75
2021/08/14 10:49:05;;;;;;;21.75;8.20;;;;;;;;;;5017819;28;20037;-74
2021/08/14 10:51:52;;;;;;;15.48;5.55;;;;;;;;;;5017699;28;20037;-75
2021/08/14 10:54:18;;;;;;;11.38;5.43;;;;;;;;;;5017942;28;20033;-75
2021/08/14 10:56:51;;;;;;;9.45;4.90;;;;;;;;;;5017689;28;20026;-75
2021/08/14 10:59:35;;;;;;;8.27;4.38;;;;;;;;;;5017471;28;20025;-75
2021/08/14 11:02:22;;;;;;;9.88;4.40;;;;;;;;;;5017773;28;20018;-75
2021/08/14 11:04:54;;;;;;;9.18;4.82;;;;;;;;;;4976716;28;20035;-75
2021/08/14 11:07:20;;;;;;;10.15;5.00;;;;;;;;;;4976709;28;20035;-75
2021/08/14 11:09:48;;;;;;;8.23;4.65;;;;;;;;;;4976316;28;20055;-75
2021/08/14 11:12:33;;;;;;;5.63;4.47;;;;;;;;;;4976609;28;20034;-75
2021/08/14 11:15:18;;;;;;;7.95;4.93;;;;;;;;;;4976364;28;20378;-75
2021/08/14 11:17:45;;;;;;;7.30;4.85;;;;;;;;;;4976455;28;20034;-75
2021/08/14 11:20:20;;;;;;;11.55;5.50;;;;;;;;;;4976422;28;20026;-75
2021/08/14 11:22:53;;;;;;;6.07;4.68;;;;;;;;;;4976436;28;20138;-75
2021/08/14 11:25:24;;;;;;;8.38;4.72;;;;;;;;;;4976346;28;20350;-75
2021/08/14 11:27:54;;;;;;;8.10;4.88;;;;;;;;;;4976350;28;20111;-75
2021/08/14 11:30:23;;;;;;;8.60;4.47;;;;;;;;;;4976517;28;20043;-75
2021/08/14 11:32:49;;;;;;;7.40;4.82;;;;;;;;;;4975577;28;20090;-75
2021/08/14 11:35:20;;;;;;;6.55;4.32;;;;;;;;;;4976342;28;20043;-75
2021/08/14 11:37:49;;;;;;;6.53;4.85;;;;;;;;;;4976216;28;20031;-75
2021/08/14 11:40:17;;;;;;;8.32;4.55;;;;;;;;;;4975970;28;20632;-75
2021/08/14 11:42:53;;;;;;;9.88;4.80;;;;;;;;;;5010603;28;20044;-75
2021/08/14 11:45:19;;;;;;;8.77;4.47;;;;;;;;;;5017005;28;20057;-75
2021/08/14 11:47:46;;;;;;;9.25;4.57;;;;;;;;;;5017160;28;20114;-75
2021/08/14 11:50:12;;;;;;;7.70;5.20;;;;;;;;;;5016997;28;20026;-76
2021/08/14 11:52:38;;;;;;;9.48;5.30;;;;;;;;;;5017098;28;20030;-75
2021/08/14 11:55:06;;;;;;;10.30;4.50;;;;;;;;;;5017261;28;20285;-75
2021/08/14 11:57:34;;;;;;;6.43;4.28;;;;;;;;;;5016868;28;20022;-75
2021/08/14 12:00:03;;;;;;;9.73;4.85;;;;;;;;;;5017183;28;20018;-75
2021/08/14 12:02:29;;;;;;;7.20;4.50;;;;;;;;;;5017378;28;20025;-75
2021/08/14 12:04:55;;;;;;;6.40;4.80;;;;;;;;;;5017342;28;20034;-75
2021/08/14 12:07:24;;;;;;;8.68;4.82;;;;;;;;;;5017115;28;20029;-75
2021/08/14 12:09:51;;;;;;;10.90;5.32;;;;;;;;;;5017146;28;20113;-75
2021/08/14 12:12:19;;;;;;;5.95;4.60;;;;;;;;;;5017133;28;20033;-76
2021/08/14 12:14:45;;;;;;;8.13;4.70;;;;;;;;;;5032649;28;20440;-75
2021/08/14 12:17:11;;;;;;;7.60;5.50;;;;;;;;;;5016984;28;20120;-75
2021/08/14 12:19:47;;;;;;;7.45;4.80;;;;;;;;;;5016804;28;20119;-75
2021/08/14 12:22:14;;;;;;;6.47;4.65;;;;;;;;;;5016740;28;20022;-75
2021/08/14 12:24:44;;;;;;;7.43;4.88;;;;;;;;;;5016687;28;20019;-75
2021/08/14 12:27:29;;;;;;;5.40;4.38;;;;;;;;;;5016743;28;20455;-75
2021/08/14 12:29:56;;;;;;;7.22;5.07;;;;;;;;;;5016644;28;20022;-75
2021/08/14 12:32:29;;;;;;;4.72;4.22;;;;;;;;;;5016586;28;20352;-75
2021/08/14 12:35:12;;;;;;;5.55;4.80;;;;;;;;;;5031648;28;20433;-75
2021/08/14 12:37:38;;;;;;;7.43;4.32;;;;;;;;;;5016274;28;20121;-75
2021/08/14 12:40:07;;;;;;;12.50;5.75;;;;;;;;;;5031418;28;20049;-75
2021/08/14 12:42:34;;;;;;;14.40;10.40;;;;;;;;;;5016316;28;20021;-74
2021/08/14 12:45:13;;;;;;;10.40;6.38;;;;;;;;;;5019703;28;20026;-75
2021/08/14 12:47:39;;;;;;;11.57;7.40;;;;;;;;;;5019693;28;20022;-75
2021/08/14 12:50:11;;;;;;;8.85;5.05;;;;;;;;;;5019748;28;20044;-75
2021/08/14 12:52:41;;;;;;;8.23;4.72;;;;;;;;;;5019883;28;20150;-76
2021/08/14 12:55:08;;;;;;;8.05;5.10;;;;;;;;;;5019840;28;20033;-75
2021/08/14 12:57:34;;;;;;;13.57;7.30;;;;;;;;;;5019472;28;20420;-75
2021/08/14 13:00:00;;;;;;;8.82;5.95;;;;;;;;;;5034866;28;20376;-75
2021/08/14 13:02:26;;;;;;;7.60;5.13;;;;;;;;;;5019837;28;20049;-74
2021/08/14 13:04:52;;;;;;;6.90;4.30;;;;;;;;;;5019454;28;20022;-75
2021/08/14 13:07:18;;;;;;;7.15;5.13;;;;;;;;;;5019437;28;20033;-74
2021/08/14 13:09:44;;;;;;;6.57;4.65;;;;;;;;;;5034861;28;20344;-75
2021/08/14 13:12:12;;;;;;;6.60;4.93;;;;;;;;;;5019318;28;20308;-75
2021/08/14 13:14:39;;;;;;;8.38;4.75;;;;;;;;;;5019309;28;20321;-75
2021/08/14 13:17:05;;;;;;;5.82;4.90;;;;;;;;;;5034591;28;20440;-75
2021/08/14 13:19:33;;;;;;;11.55;5.30;;;;;;;;;;5019438;28;20018;-75
2021/08/14 13:21:59;;;;;;;9.35;4.95;;;;;;;;;;5019348;28;20152;-75
2021/08/14 13:24:25;;;;;;;6.55;5.22;;;;;;;;;;5019313;28;20068;-75
2021/08/14 13:26:51;;;;;;;8.85;5.88;;;;;;;;;;5019133;28;20108;-75
2021/08/14 13:29:17;;;;;;;5.95;5.10;;;;;;;;;;5019038;28;20367;-75
2021/08/14 13:31:44;;;;;;;9.43;5.13;;;;;;;;;;5019283;28;20423;-75
2021/08/14 13:34:11;;;;;;;6.53;5.22;;;;;;;;;;5019223;28;20026;-75
2021/08/14 13:36:38;;;;;;;9.80;4.40;;;;;;;;;;5019031;28;20081;-75
2021/08/14 13:39:04;;;;;;;14.57;5.05;;;;;;;;;;5018687;28;20291;-75
2021/08/14 13:41:30;;;;;;;7.95;4.90;;;;;;;;;;5034399;28;20397;-75
2021/08/14 13:43:58;;;;;;;8.40;5.20;;;;;;;;;;5018493;28;20036;-75
2021/08/14 13:46:24;;;;;;;8.32;5.05;;;;;;;;;;5018995;28;20024;-75
2021/08/14 13:48:50;;;;;;;10.68;5.47;;;;;;;;;;5018813;28;20061;-76
2021/08/14 13:51:16;;;;;;;7.18;4.97;;;;;;;;;;5033934;28;20343;-75
2021/08/14 13:53:42;;;;;;;6.35;4.90;;;;;;;;;;5018877;28;20023;-75
2021/08/14 13:56:09;;;;;;;7.85;5.00;;;;;;;;;;5017894;28;20022;-75
2021/08/14 13:58:35;;;;;;;9.25;4.85;;;;;;;;;;5018429;28;20057;-75
2021/08/14 14:01:01;;;;;;;7.13;4.93;;;;;;;;;;5018490;28;20030;-75
2021/08/14 14:03:27;;;;;;;24.42;5.22;;;;;;;;;;5018458;28;20101;-75
2021/08/14 14:05:54;;;;;;;8.68;5.15;;;;;;;;;;5018667;28;20157;-75
2021/08/14 14:08:20;;;;;;;8.05;4.90;;;;;;;;;;5018556;28;20037;-75
2021/08/14 14:10:46;;;;;;;8.95;5.05;;;;;;;;;;5018368;28;20056;-76
2021/08/14 14:13:12;;;;;;;8.88;5.28;;;;;;;;;;5018359;28;20029;-75
2021/08/14 14:15:38;;;;;;;6.85;4.85;;;;;;;;;;5018439;28;20018;-75
2021/08/14 14:18:04;;;;;;;10.15;4.75;;;;;;;;;;5017984;28;20026;-75
2021/08/14 14:20:30;;;;;;;12.77;5.00;;;;;;;;;;5018379;28;20022;-75
2021/08/14 14:22:56;;;;;;;7.43;4.68;;;;;;;;;;5018178;28;20324;-75
2021/08/14 14:25:23;;;;;;;7.18;4.40;;;;;;;;;;5018241;28;20025;-75
2021/08/14 14:27:49;;;;;;;7.22;4.88;;;;;;;;;;5018138;28;20437;-75
2021/08/14 14:30:16;;;;;;;7.82;4.78;;;;;;;;;;5018011;28;20045;-74
2021/08/14 14:32:42;;;;;;;5.45;4.47;;;;;;;;;;5017962;28;20022;-75
2021/08/14 14:35:09;;;;;;;10.93;4.68;;;;;;;;;;5017918;28;20053;-75
2021/08/14 14:37:35;;;;;;;6.95;4.97;;;;;;;;;;5018018;28;20407;-75